Sugar Land, TX (77479)

6:16 AM CST on December 20, 2014 (GMT -0600)
Duncan's Grove | Change Station
CLOSE
Current Station
Personal Weather Station
Location: Sugar Land, TX
Elevation: 65 ft
Nearby Weather Stations

Elev 65 ft 29.58 °N, 95.60 °W | Updated 1 minute ago

Overcast
Overcast
51.4 °F
Feels Like 51.4 °F
N
7.6
Wind Variable Wind from WNW
Gusts 10.7 mph

Today
High -- | Low -- °F
--% Chance of Precip.
Yesterday
High -- | Low -- °F
Precip. -- in
7:12 AM 5:27 PM
Waning Crescent, 3% visible
Pressure 30.16 in
Visibility 10.0 miles
Clouds Overcast 900 ft
Dew Point 51 °F
Humidity 99%
Rainfall 0.00 in
Snow Depth Not available.
UV 0 out of 12
Pollen 6.70 out of 12
Air Quality Not available.
Flu Activity Not available.
METAR KSGR 201153Z 03012KT 10SM OVC009 11/09 A3015 RMK AO2 SLP211 70193 T01110089 10117 20111 53007

More Conditions Fewer Conditions

Pressure 30.16 in
Visibility 10.0 miles
Clouds Overcast 900 ft
Dew Point 51 °F
Humidity 99%
Rainfall 0.00 in
Snow Depth Not available.
UV 0 out of 12
Pollen 6.70 out of 12
Air Quality Not available.
Flu Activity Not available.
METAR KSGR 201153Z 03012KT 10SM OVC009 11/09 A3015 RMK AO2 SLP211 70193 T01110089 10117 20111 53007

More Conditions Fewer Conditions

10-Day Weather Forecast

Almanac

Astronomy

Dec. 20, 2014 Rise Set
Actual Time
Civil Twilight
Nautical Twilight
Astronomical Twilight
Moon
Length of Visible Light
Length of Day
Tomorrow will be .
, % of the Moon is Illuminated

Today's Extremes

State Highs State Lows

Community

WunderPhotos

Upload Photos

1,779,162 photos uploaded!

WunderBlogs® & News

Nearby

Air Quality

  Air Quality AQ Index Pollutant
Not available.

Snow Depth

Station Depth Elevation

Earthquake Activity

City Distance Mag. Time & Date
Minimum magnitude displayed is 2.5.

Coastal Water Temperatures

Place Temperature

Nearby Weather Stations